createdAt,value
2024-03-01T00:00:39.045Z,12.54
2024-03-01T00:03:07.181Z,12.54
2024-03-01T00:05:35.535Z,12.54
2024-03-01T00:08:02.447Z,12.54
2024-03-01T00:10:29.443Z,12.53
2024-03-01T00:12:56.455Z,12.53
2024-03-01T00:15:23.542Z,12.52
2024-03-01T00:17:50.501Z,12.51
2024-03-01T00:20:17.662Z,12.51
2024-03-01T00:22:44.601Z,12.48
2024-03-01T00:25:11.629Z,12.48
2024-03-01T00:27:38.570Z,12.46
2024-03-01T00:30:06.267Z,12.45
2024-03-01T00:32:33.606Z,12.46
2024-03-01T00:35:00.689Z,12.44
2024-03-01T00:37:27.683Z,12.45
2024-03-01T00:39:54.702Z,12.47
2024-03-01T00:42:21.628Z,12.49
2024-03-01T00:44:48.544Z,12.50
2024-03-01T00:47:15.470Z,12.53
2024-03-01T00:49:42.378Z,12.54
2024-03-01T00:52:10.017Z,12.57
2024-03-01T00:54:36.975Z,12.58
2024-03-01T00:57:03.985Z,12.59
2024-03-01T00:59:30.928Z,12.52
2024-03-01T01:01:58.198Z,12.57
2024-03-01T01:04:25.235Z,12.58
2024-03-01T01:06:52.366Z,12.57
2024-03-01T01:09:19.472Z,12.58
2024-03-01T01:11:46.402Z,12.57
2024-03-01T01:14:13.340Z,12.58
2024-03-01T01:16:40.267Z,12.56
2024-03-01T01:19:07.202Z,12.54
2024-03-01T01:21:34.300Z,12.54
2024-03-01T01:24:01.418Z,12.51
2024-03-01T01:26:28.380Z,12.50
2024-03-01T01:28:55.281Z,12.49
2024-03-01T01:31:22.477Z,12.49
2024-03-01T01:33:49.802Z,12.49
2024-03-01T01:36:16.841Z,12.47
2024-03-01T01:38:43.743Z,12.48
2024-03-01T01:41:10.668Z,12.50
2024-03-01T01:43:39.285Z,12.48
2024-03-01T01:46:07.469Z,12.46
2024-03-01T01:48:34.399Z,12.46
2024-03-01T01:51:02.150Z,12.46
2024-03-01T01:53:31.977Z,12.45
2024-03-01T01:56:01.107Z,12.46
2024-03-01T01:58:30.100Z,12.46
2024-03-01T02:00:57.406Z,12.46
2024-03-01T02:03:28.584Z,12.48
2024-03-01T02:05:55.651Z,12.50
2024-03-01T02:08:22.766Z,12.50
2024-03-01T02:10:49.691Z,12.53
2024-03-01T02:13:23.968Z,12.52
2024-03-01T02:15:52.844Z,12.54
2024-03-01T02:18:20.016Z,12.50
2024-03-01T02:21:07.177Z,12.54
2024-03-01T02:23:34.935Z,12.52
2024-03-01T02:26:01.892Z,12.51
2024-03-01T02:28:29.111Z,12.45
2024-03-01T02:30:56.130Z,12.47
2024-03-01T02:33:23.437Z,12.44
2024-03-01T02:35:50.937Z,12.43
2024-03-01T02:38:17.893Z,12.38
2024-03-01T02:40:45.260Z,12.35
2024-03-01T02:43:12.212Z,12.30
2024-03-01T02:45:39.247Z,12.29
2024-03-01T02:48:06.856Z,12.24
2024-03-01T02:50:33.934Z,12.19
2024-03-01T02:53:00.974Z,12.15
2024-03-01T02:55:27.987Z,12.14
2024-03-01T02:57:56.815Z,12.12
2024-03-01T03:00:24.666Z,12.11
2024-03-01T03:02:55.067Z,12.11
2024-03-01T03:05:22.160Z,12.07
2024-03-01T03:07:49.218Z,12.03
2024-03-01T03:10:16.346Z,12.08
2024-03-01T03:12:45.297Z,12.09
2024-03-01T03:15:12.254Z,12.09
2024-03-01T03:17:39.242Z,12.11
2024-03-01T03:20:13.258Z,12.14
2024-03-01T03:22:45.986Z,12.14
2024-03-01T03:25:16.664Z,12.16
2024-03-01T03:27:44.478Z,12.19
2024-03-01T03:30:12.157Z,12.22
2024-03-01T03:32:39.204Z,12.26
2024-03-01T03:35:06.946Z,12.29
2024-03-01T03:37:34.131Z,12.31
2024-03-01T03:40:01.460Z,12.32
2024-03-01T03:42:28.804Z,12.33
2024-03-01T03:44:55.690Z,12.35
2024-03-01T03:47:22.620Z,12.36
2024-03-01T03:49:49.643Z,12.37
2024-03-01T03:52:16.765Z,12.39
2024-03-01T03:54:43.851Z,12.40
2024-03-01T03:57:10.839Z,12.42
2024-03-01T03:59:37.827Z,12.43
2024-03-01T04:02:05.126Z,12.44
2024-03-01T04:04:32.189Z,12.44
2024-03-01T04:06:59.370Z,12.43
2024-03-01T04:09:26.500Z,12.44
2024-03-01T04:11:54.106Z,12.44
2024-03-01T04:14:21.141Z,12.43
2024-03-01T04:16:48.113Z,12.43
2024-03-01T04:19:15.257Z,12.44
2024-03-01T04:21:43.991Z,12.44
2024-03-01T04:24:12.355Z,12.41
2024-03-01T04:26:40.312Z,12.46
2024-03-01T04:29:07.399Z,12.48
2024-03-01T04:31:34.819Z,12.48
2024-03-01T04:34:05.299Z,12.47
2024-03-01T04:36:32.339Z,12.52
2024-03-01T04:38:59.518Z,12.53
2024-03-01T04:41:26.409Z,12.53
2024-03-01T04:43:53.295Z,12.54
2024-03-01T04:46:20.218Z,12.54
2024-03-01T04:48:47.112Z,12.54
2024-03-01T04:51:14.199Z,12.53
2024-03-01T04:53:42.181Z,12.52
2024-03-01T04:56:12.264Z,12.56
2024-03-01T04:58:39.468Z,12.58
2024-03-01T05:01:06.656Z,12.60
2024-03-01T05:03:33.671Z,12.61
2024-03-01T05:06:00.568Z,12.63
2024-03-01T05:08:29.106Z,12.64
2024-03-01T05:10:56.246Z,12.67
2024-03-01T05:13:23.616Z,12.68
2024-03-01T05:15:50.758Z,12.63
2024-03-01T05:18:18.992Z,12.69
2024-03-01T05:20:46.058Z,12.70
2024-03-01T05:23:13.215Z,12.71
2024-03-01T05:25:40.161Z,12.70
2024-03-01T05:28:07.145Z,12.70
2024-03-01T05:30:46.781Z,12.67
2024-03-01T05:33:17.328Z,12.70
2024-03-01T05:35:45.030Z,12.72
2024-03-01T05:38:12.167Z,12.72
2024-03-01T05:40:46.766Z,12.74
2024-03-01T05:43:22.710Z,12.74
2024-03-01T05:45:51.323Z,12.70
2024-03-01T05:48:19.035Z,12.74
2024-03-01T05:50:46.013Z,12.74
2024-03-01T05:53:17.075Z,12.78
2024-03-01T05:55:45.059Z,12.77
2024-03-01T05:58:12.352Z,12.79
2024-03-01T06:00:41.780Z,12.81
2024-03-01T06:03:08.776Z,12.80
2024-03-01T06:05:35.688Z,12.81
2024-03-01T06:08:02.684Z,12.80
2024-03-01T06:10:29.684Z,12.81
2024-03-01T06:12:59.494Z,12.82
2024-03-01T06:15:27.454Z,12.74
2024-03-01T06:17:54.552Z,12.84
2024-03-01T06:20:21.555Z,12.84
2024-03-01T06:22:48.493Z,12.83
2024-03-01T06:25:15.498Z,12.86
2024-03-01T06:27:42.466Z,12.87
2024-03-01T06:30:09.709Z,12.89
2024-03-01T06:32:36.850Z,12.91
2024-03-01T06:35:05.149Z,12.92
2024-03-01T06:37:32.466Z,12.90
2024-03-01T06:39:59.593Z,12.93
2024-03-01T06:42:26.577Z,12.89
2024-03-01T06:44:53.956Z,12.93
2024-03-01T06:47:22.831Z,12.93
2024-03-01T06:49:50.119Z,12.94
2024-03-01T06:52:17.335Z,12.96
2024-03-01T06:54:46.999Z,12.95
2024-03-01T06:57:14.144Z,12.94
2024-03-01T06:59:41.112Z,12.98
2024-03-01T07:02:08.138Z,12.97
2024-03-01T07:04:35.333Z,13.04
2024-03-01T07:07:02.795Z,12.98
2024-03-01T07:09:29.762Z,13.09
2024-03-01T07:11:56.972Z,13.02
2024-03-01T07:14:23.888Z,13.13
2024-03-01T07:16:50.811Z,13.14
2024-03-01T07:19:18.862Z,13.18
2024-03-01T07:21:45.834Z,13.20
2024-03-01T07:24:12.745Z,13.22
2024-03-01T07:26:39.985Z,13.28
2024-03-01T07:29:06.916Z,13.32
2024-03-01T07:31:34.052Z,13.35
2024-03-01T07:34:01.264Z,13.37
2024-03-01T07:36:28.282Z,13.39
2024-03-01T07:38:55.236Z,13.41
2024-03-01T07:41:22.718Z,13.41
2024-03-01T07:43:50.145Z,13.42
2024-03-01T07:46:17.854Z,13.44
2024-03-01T07:48:46.329Z,13.46
2024-03-01T07:51:14.031Z,13.49
2024-03-01T07:53:42.377Z,13.50
2024-03-01T07:56:09.269Z,13.51
2024-03-01T07:58:36.642Z,13.52
2024-03-01T08:01:04.075Z,13.53
2024-03-01T08:03:31.476Z,13.54
2024-03-01T08:05:58.477Z,13.55
2024-03-01T08:08:37.401Z,13.56
2024-03-01T08:11:12.626Z,13.61
2024-03-01T08:13:40.033Z,13.65
2024-03-01T08:16:13.377Z,13.67
2024-03-01T08:18:43.830Z,13.70
2024-03-01T08:21:15.232Z,13.75
2024-03-01T08:23:44.075Z,13.78
2024-03-01T08:26:14.347Z,13.82
2024-03-01T08:28:45.413Z,13.83
2024-03-01T08:31:36.944Z,13.81
2024-03-01T08:34:26.976Z,13.85
2024-03-01T08:36:54.658Z,13.89
2024-03-01T08:39:23.897Z,13.90
2024-03-01T08:41:53.933Z,13.91
2024-03-01T08:44:45.097Z,13.89
2024-03-01T08:47:41.234Z,13.89
2024-03-01T08:50:26.799Z,13.87
2024-03-01T08:52:55.598Z,13.88
2024-03-01T08:55:39.337Z,13.86
2024-03-01T08:58:12.907Z,13.82
2024-03-01T09:00:49.157Z,13.89
2024-03-01T09:03:25.217Z,13.91
2024-03-01T09:05:54.876Z,13.87
2024-03-01T09:08:32.030Z,13.90
2024-03-01T09:10:59.462Z,13.92
2024-03-01T09:13:27.751Z,13.93
2024-03-01T09:15:58.200Z,13.95
2024-03-01T09:18:50.538Z,13.97
2024-03-01T09:21:32.681Z,13.98
2024-03-01T09:24:00.566Z,14.00
2024-03-01T09:26:27.562Z,14.06
2024-03-01T09:29:03.034Z,14.10
2024-03-01T09:31:34.305Z,14.14
2024-03-01T09:34:12.091Z,14.20
2024-03-01T09:36:39.618Z,14.23
2024-03-01T09:39:09.982Z,14.20
2024-03-01T09:42:17.210Z,14.24
2024-03-01T09:45:09.341Z,14.25
2024-03-01T09:48:01.794Z,14.24
2024-03-01T09:50:53.563Z,14.24
2024-03-01T09:53:57.925Z,14.25
2024-03-01T09:57:03.055Z,14.25
2024-03-01T09:59:52.898Z,14.26
2024-03-01T10:02:41.184Z,14.24
2024-03-01T10:05:49.118Z,14.21
2024-03-01T10:08:52.600Z,14.29
2024-03-01T10:11:53.208Z,14.30
2024-03-01T10:14:53.181Z,14.33
2024-03-01T10:17:51.714Z,14.36
2024-03-01T10:20:34.660Z,14.37
2024-03-01T10:23:35.590Z,14.40
2024-03-01T10:26:17.001Z,14.41
2024-03-01T10:29:17.060Z,14.43
2024-03-01T10:32:24.467Z,14.45
2024-03-01T10:35:12.727Z,14.49
2024-03-01T10:38:15.137Z,14.53
2024-03-01T10:41:19.262Z,14.56
2024-03-01T10:44:21.176Z,14.61
2024-03-01T10:47:20.309Z,14.62
2024-03-01T10:50:13.784Z,14.67
2024-03-01T10:53:17.713Z,14.68
2024-03-01T10:55:52.110Z,14.72
2024-03-01T10:58:35.451Z,14.73
2024-03-01T11:01:23.302Z,14.75
2024-03-01T11:03:58.560Z,14.80
2024-03-01T11:06:50.400Z,14.85
2024-03-01T11:09:42.637Z,14.86
2024-03-01T11:12:36.805Z,14.92
2024-03-01T11:15:19.120Z,14.93
2024-03-01T11:17:50.757Z,14.94
2024-03-01T11:20:30.420Z,14.96
2024-03-01T11:23:10.854Z,14.97
2024-03-01T11:25:50.645Z,14.97
2024-03-01T11:28:24.861Z,14.95
2024-03-01T11:31:02.366Z,14.91
2024-03-01T11:33:30.988Z,14.86
2024-03-01T11:36:06.250Z,14.95
2024-03-01T11:38:38.723Z,14.99
2024-03-01T11:41:38.292Z,15.02
2024-03-01T11:44:33.836Z,15.05
2024-03-01T11:47:32.084Z,15.08
2024-03-01T11:50:14.349Z,15.12
2024-03-01T11:53:09.456Z,15.14
2024-03-01T11:56:13.029Z,15.10
2024-03-01T11:59:04.172Z,15.11
2024-03-01T12:02:07.369Z,15.13
2024-03-01T12:05:07.928Z,15.13
2024-03-01T12:08:19.766Z,15.10
2024-03-01T12:11:22.469Z,15.12
2024-03-01T12:13:57.094Z,15.15
2024-03-01T12:16:44.400Z,15.20
2024-03-01T12:19:21.123Z,15.28
2024-03-01T12:22:22.850Z,15.34
2024-03-01T12:24:52.402Z,15.37
2024-03-01T12:27:48.401Z,15.37
2024-03-01T12:30:34.684Z,15.41
2024-03-01T12:33:32.813Z,15.48
2024-03-01T12:36:36.515Z,15.55
2024-03-01T12:39:12.106Z,15.64
2024-03-01T12:42:13.921Z,15.69
2024-03-01T12:45:09.530Z,15.80
2024-03-01T12:48:29.220Z,15.84
2024-03-01T12:51:18.023Z,15.88
2024-03-01T12:53:57.894Z,15.89
2024-03-01T12:56:49.125Z,15.98
2024-03-01T12:59:50.093Z,16.01
2024-03-01T13:02:35.857Z,16.03
2024-03-01T13:05:28.934Z,16.04
2024-03-01T13:07:58.502Z,16.03
2024-03-01T13:10:28.409Z,16.05
2024-03-01T13:13:27.077Z,16.06
2024-03-01T13:16:16.086Z,16.06
2024-03-01T13:19:09.273Z,16.07
2024-03-01T13:21:59.687Z,16.12
2024-03-01T13:25:17.414Z,16.16
2024-03-01T13:28:05.944Z,16.23
2024-03-01T13:30:38.521Z,16.27
2024-03-01T13:33:42.781Z,16.30
2024-03-01T13:36:15.639Z,16.34
2024-03-01T13:39:19.524Z,16.34
2024-03-01T13:42:33.306Z,16.35
2024-03-01T13:45:13.214Z,16.36
2024-03-01T13:47:48.139Z,16.36
2024-03-01T13:50:27.538Z,16.35
2024-03-01T13:52:55.259Z,16.26
2024-03-01T13:55:22.442Z,16.32
2024-03-01T13:57:49.836Z,16.31
2024-03-01T14:00:24.052Z,16.31
2024-03-01T14:02:53.651Z,16.28
2024-03-01T14:05:30.099Z,16.27
2024-03-01T14:07:59.168Z,16.26
2024-03-01T14:10:27.034Z,16.25
2024-03-01T14:12:55.211Z,16.25
2024-03-01T14:15:23.034Z,16.25
2024-03-01T14:17:51.869Z,16.21
2024-03-01T14:20:20.660Z,16.11
2024-03-01T14:22:54.030Z,16.11
2024-03-01T14:25:22.515Z,16.01
2024-03-01T14:27:56.804Z,15.94
2024-03-01T14:30:26.528Z,15.92
2024-03-01T14:33:13.818Z,15.94
2024-03-01T14:35:42.069Z,15.91
2024-03-01T14:38:17.701Z,15.91
2024-03-01T14:41:05.213Z,15.90
2024-03-01T14:43:54.671Z,15.88
2024-03-01T14:46:41.817Z,15.85
2024-03-01T14:49:19.203Z,15.87
2024-03-01T14:51:52.078Z,15.85
2024-03-01T14:54:26.050Z,15.85
2024-03-01T14:56:58.038Z,15.86
2024-03-01T14:59:26.006Z,15.85
2024-03-01T15:01:53.442Z,15.85
2024-03-01T15:04:21.282Z,15.83
2024-03-01T15:06:55.106Z,15.82
2024-03-01T15:09:25.528Z,15.84
2024-03-01T15:11:53.152Z,15.85
2024-03-01T15:14:27.266Z,15.86
2024-03-01T15:17:05.966Z,15.84
2024-03-01T15:19:39.903Z,15.85
2024-03-01T15:22:07.463Z,15.85
2024-03-01T15:24:34.450Z,15.84
2024-03-01T15:27:01.419Z,15.82
2024-03-01T15:29:28.357Z,15.82
2024-03-01T15:31:55.425Z,15.79
2024-03-01T15:34:22.388Z,15.73
2024-03-01T15:36:50.465Z,15.73
2024-03-01T15:39:18.190Z,15.72
2024-03-01T15:41:45.110Z,15.71
2024-03-01T15:44:12.044Z,15.67
2024-03-01T15:46:39.030Z,15.63
2024-03-01T15:49:06.015Z,15.67
2024-03-01T15:51:32.929Z,15.65
2024-03-01T15:53:59.866Z,15.63
2024-03-01T15:56:26.787Z,15.63
2024-03-01T15:58:53.831Z,15.62
2024-03-01T16:01:21.069Z,15.60
2024-03-01T16:03:48.382Z,15.58
2024-03-01T16:06:15.936Z,15.55
2024-03-01T16:08:43.472Z,15.52
2024-03-01T16:11:13.186Z,15.49
2024-03-01T16:13:40.985Z,15.41
2024-03-01T16:16:09.280Z,15.42
2024-03-01T16:18:38.406Z,15.38
2024-03-01T16:21:07.121Z,15.28
2024-03-01T16:23:43.583Z,15.27
2024-03-01T16:26:17.985Z,15.18
2024-03-01T16:28:48.302Z,15.18
2024-03-01T16:31:15.317Z,15.08
2024-03-01T16:33:42.635Z,15.07
2024-03-01T16:36:20.074Z,15.00
2024-03-01T16:38:47.852Z,15.00
2024-03-01T16:41:33.959Z,14.96
2024-03-01T16:44:03.085Z,14.94
2024-03-01T16:46:37.716Z,14.85
2024-03-01T16:49:05.991Z,14.84
2024-03-01T16:51:43.780Z,14.78
2024-03-01T16:54:31.024Z,14.74
2024-03-01T16:57:27.257Z,14.64
2024-03-01T16:59:54.970Z,14.66
2024-03-01T17:02:37.938Z,14.62
2024-03-01T17:05:29.509Z,14.58
2024-03-01T17:07:56.430Z,14.54
2024-03-01T17:10:36.031Z,14.48
2024-03-01T17:13:04.366Z,14.46
2024-03-01T17:15:31.985Z,14.45
2024-03-01T17:18:00.327Z,14.43
2024-03-01T17:20:30.093Z,14.41
2024-03-01T17:22:57.036Z,14.39
2024-03-01T17:25:24.961Z,14.37
2024-03-01T17:27:51.875Z,14.35
2024-03-01T17:30:18.795Z,14.34
2024-03-01T17:32:49.436Z,14.34
2024-03-01T17:35:16.968Z,14.33
2024-03-01T17:37:43.923Z,14.31
2024-03-01T17:40:10.929Z,14.30
2024-03-01T17:42:37.874Z,14.27
2024-03-01T17:45:05.703Z,14.24
2024-03-01T17:47:33.329Z,14.17
2024-03-01T17:50:00.719Z,14.15
2024-03-01T17:52:28.114Z,14.12
2024-03-01T17:54:55.071Z,14.13
2024-03-01T17:57:21.992Z,14.13
2024-03-01T17:59:48.909Z,14.10
2024-03-01T18:02:15.935Z,14.03
2024-03-01T18:04:43.640Z,14.05
2024-03-01T18:07:10.690Z,14.04
2024-03-01T18:09:37.686Z,13.98
2024-03-01T18:12:05.079Z,13.97
2024-03-01T18:14:32.031Z,13.94
2024-03-01T18:16:58.987Z,13.89
2024-03-01T18:19:25.969Z,13.85
2024-03-01T18:21:55.020Z,13.80
2024-03-01T18:24:22.116Z,13.76
2024-03-01T18:26:49.986Z,13.74
2024-03-01T18:29:16.900Z,13.73
2024-03-01T18:31:43.927Z,13.71
2024-03-01T18:34:11.300Z,13.69
2024-03-01T18:36:38.262Z,13.68
2024-03-01T18:39:05.361Z,13.65
2024-03-01T18:41:32.309Z,13.63
2024-03-01T18:43:59.439Z,13.57
2024-03-01T18:46:29.604Z,13.55
2024-03-01T18:48:59.648Z,13.51
2024-03-01T18:51:26.669Z,13.48
2024-03-01T18:53:54.131Z,13.45
2024-03-01T18:56:21.713Z,13.43
2024-03-01T18:58:48.701Z,13.39
2024-03-01T19:01:16.254Z,13.36
2024-03-01T19:03:43.716Z,13.33
2024-03-01T19:06:10.837Z,13.27
2024-03-01T19:08:37.736Z,13.22
2024-03-01T19:11:05.865Z,13.16
2024-03-01T19:13:32.858Z,13.12
2024-03-01T19:15:59.770Z,13.08
2024-03-01T19:18:26.708Z,13.07
2024-03-01T19:20:53.604Z,12.97
2024-03-01T19:23:20.508Z,12.98
2024-03-01T19:25:47.624Z,12.96
2024-03-01T19:28:14.791Z,12.80
2024-03-01T19:30:41.830Z,12.88
2024-03-01T19:33:08.919Z,12.84
2024-03-01T19:35:36.243Z,12.80
2024-03-01T19:38:03.174Z,12.78
2024-03-01T19:40:30.288Z,12.74
2024-03-01T19:42:57.237Z,12.71
2024-03-01T19:45:24.209Z,12.68
2024-03-01T19:47:51.881Z,12.65
2024-03-01T19:50:18.827Z,12.63
2024-03-01T19:52:45.736Z,12.60
2024-03-01T19:55:12.714Z,12.57
2024-03-01T19:57:39.639Z,12.50
2024-03-01T20:00:08.825Z,12.51
2024-03-01T20:02:35.941Z,12.43
2024-03-01T20:05:02.855Z,12.43
2024-03-01T20:07:29.814Z,12.44
2024-03-01T20:09:56.802Z,12.43
2024-03-01T20:12:23.732Z,12.43
2024-03-01T20:14:51.628Z,12.41
2024-03-01T20:17:18.547Z,12.40
2024-03-01T20:19:46.391Z,12.33
2024-03-01T20:22:14.754Z,12.38
2024-03-01T20:24:41.679Z,12.38
2024-03-01T20:27:08.698Z,12.35
2024-03-01T20:29:35.598Z,12.32
2024-03-01T20:32:04.579Z,12.31
2024-03-01T20:34:31.984Z,12.29
2024-03-01T20:37:02.066Z,12.28
2024-03-01T20:39:29.122Z,12.24
2024-03-01T20:41:56.092Z,12.25
2024-03-01T20:44:23.838Z,12.23
2024-03-01T20:46:54.641Z,12.20
2024-03-01T20:49:24.042Z,12.18
2024-03-01T20:51:51.323Z,12.14
2024-03-01T20:54:18.292Z,12.13
2024-03-01T20:56:45.276Z,12.10
2024-03-01T20:59:12.212Z,12.06
2024-03-01T21:01:39.213Z,12.02
2024-03-01T21:04:06.283Z,11.98
2024-03-01T21:06:34.842Z,11.96
2024-03-01T21:09:02.147Z,11.93
2024-03-01T21:11:29.118Z,11.90
2024-03-01T21:13:56.057Z,11.86
2024-03-01T21:16:23.027Z,11.81
2024-03-01T21:18:50.224Z,11.77
2024-03-01T21:21:17.137Z,11.73
2024-03-01T21:23:44.188Z,11.69
2024-03-01T21:26:11.152Z,11.63
2024-03-01T21:28:38.042Z,11.59
2024-03-01T21:31:04.977Z,11.54
2024-03-01T21:33:32.389Z,11.49
2024-03-01T21:35:59.419Z,11.45
2024-03-01T21:38:26.340Z,11.41
2024-03-01T21:40:53.989Z,11.35
2024-03-01T21:43:20.957Z,11.30
2024-03-01T21:45:47.882Z,11.24
2024-03-01T21:48:16.292Z,11.14
2024-03-01T21:50:43.395Z,11.12
2024-03-01T21:53:10.299Z,11.08
2024-03-01T21:55:37.983Z,11.05
2024-03-01T21:58:05.067Z,11.02
2024-03-01T22:00:32.045Z,10.99
2024-03-01T22:02:58.979Z,10.94
2024-03-01T22:05:25.910Z,10.91
2024-03-01T22:08:02.339Z,10.88
2024-03-01T22:10:34.129Z,10.86
2024-03-01T22:13:01.113Z,10.84
2024-03-01T22:15:28.091Z,10.81
2024-03-01T22:17:55.045Z,10.78
2024-03-01T22:20:21.932Z,10.78
2024-03-01T22:22:48.831Z,10.76
2024-03-01T22:25:15.785Z,10.72
2024-03-01T22:27:42.773Z,10.65
2024-03-01T22:30:11.324Z,10.67
2024-03-01T22:32:38.430Z,10.66
2024-03-01T22:35:05.862Z,10.64
2024-03-01T22:37:36.050Z,10.62
2024-03-01T22:40:03.598Z,10.59
2024-03-01T22:42:30.604Z,10.58
2024-03-01T22:44:58.415Z,10.57
2024-03-01T22:47:25.483Z,10.56
2024-03-01T22:49:53.041Z,10.55
2024-03-01T22:52:26.641Z,10.54
2024-03-01T22:54:53.672Z,10.54
2024-03-01T22:57:29.303Z,10.54
2024-03-01T23:00:22.018Z,10.53
2024-03-01T23:02:53.393Z,10.47
2024-03-01T23:05:52.902Z,10.50
2024-03-01T23:08:26.129Z,10.51
2024-03-01T23:10:53.489Z,10.51
2024-03-01T23:13:20.890Z,10.51
2024-03-01T23:15:50.446Z,10.50
2024-03-01T23:18:18.045Z,10.49
2024-03-01T23:20:45.731Z,10.48
2024-03-01T23:23:12.651Z,10.44
2024-03-01T23:25:40.392Z,10.51
2024-03-01T23:28:07.958Z,10.55
2024-03-01T23:30:36.491Z,10.55
2024-03-01T23:33:04.507Z,10.56
2024-03-01T23:35:32.246Z,10.56
2024-03-01T23:37:59.315Z,10.57
2024-03-01T23:40:26.310Z,10.59
2024-03-01T23:42:53.562Z,10.61
2024-03-01T23:45:21.105Z,10.64
2024-03-01T23:47:48.142Z,10.65
2024-03-01T23:50:15.321Z,10.65
2024-03-01T23:52:42.535Z,10.68
2024-03-01T23:55:11.294Z,10.68
2024-03-01T23:57:38.983Z,10.62
